AirNav   Air Wisconsin Up To $57,000 Bonus
 
 1797 users online  

2FL1 Broward County Civic Arena Heliport
Sunrise, Florida, USA

GOING TO SUNRISE?


FAA INFORMATION EFFECTIVE 02 JANUARY 2020

Location

FAA Identifier: 2FL1
Lat/Long: 26-09-34.9600N 080-19-33.3300W
26-09.582667N 080-19.555500W
26.1597111,-80.3259250
(estimated)
Elevation: 10 ft. / 3 m (estimated)
Variation: 04W (1995)
Time zone: UTC -5 (UTC -4 during Daylight Saving Time)
Zip code: 33323

Heliport Operations

Heliport use: Private use. Permission required prior to landing
Activation date: 02/1999
Control tower: no
ARTCC: MIAMI CENTER
FSS: MIAMI FLIGHT SERVICE STATION
Attendance: UNATNDD
Wind indicator: lighted
Segmented circle: no
Lights: SS-SR

Heliport Communications

WX ASOS at FXE (9 nm E): PHONE 954-772-2537
WX ASOS at HWO (11 nm SE): PHONE 954-983-5904
WX ASOS at FLL (11 nm SE): PHONE 954-359-7857
WX ASOS at PMP (13 nm NE): PHONE 954-783-3720
WX ASOS at OPF (15 nm S): 125.9 (305-681-4063)
WX AWOS-3 at BCT (18 nm NE): 121.125 (561-391-2696)

Nearby radio navigation aids

VOR radial/distance  VOR name  Freq  Var
FLLr307/10.0FORT LAUDERDALE VOR/DME114.4006W
DHPr007/21.6DOLPHIN VORTAC113.9004W
VKZr343/26.2VIRGINIA KEY VOR/DME117.1004W
PBIr205/33.8PALM BEACH VORTAC115.7003W

Heliport Services

Runway Information

Helipad H1

Dimensions: 42 x 42 ft. / 13 x 13 m
FINAL APCH & LNDG AREA MEASURES 76 FT BY 76 FT.
Surface: asphalt
Latitude: 26-09.582667N
Longitude: 080-19.555500W
Elevation: 10.0 ft.
Traffic pattern: leftleft
Approach lights: NSTD
5 FLUSH, IN-GROUND LOW INTST RED LGTS ON APCH ROUTE.

Heliport Ownership and Management from official FAA records

Ownership: Privately-owned
Owner: BROWARD COUNTY
115 NORTH ANDREWS AVENUE
FORT LAUDERDALE, FL 33301
Phone 954-357-6222
Manager: TIM OWENS
2555 PANTHER PKWY
SUNRISE, FL 33323
Phone 954-835-8420
JOHN POKRYFKE 2200 SW 45TH ST, SUITE 101 DANIA BEACH, FL 33312 954-359-1214

Instrument Procedures

There are no published instrument procedures at 2FL1.

Some nearby airports with instrument procedures:

KFXE - Fort Lauderdale Executive Airport (9 nm E)
KHWO - North Perry Airport (11 nm SE)
KFLL - Fort Lauderdale/Hollywood International Airport (11 nm SE)
KPMP - Pompano Beach Airpark (13 nm NE)
KOPF - Miami-Opa Locka Executive Airport (15 nm S)
KBCT - Boca Raton Airport (18 nm NE)
 
Loc | Ops | Rwys | IFR | FBO | Links
Com | Nav | Svcs | Stats | Notes

Reliance Aviation
AirBoss

 
Area around 2FL1 (Broward County Civic Arena Heliport)
 
Road maps at: MapQuest Bing Google
 
Aerial photo
No photo
 
Sectional chart

 
Airport distance calculator
Flying to Broward County Civic Arena Heliport? Find the distance to fly.

From to 2FL1

Sunrise and sunset
Times for 21-Jan-2020
 Local
(UTC-5)
 Zulu
(UTC)
Morning civil twilight06:4611:46
Sunrise07:1112:11
Sunset17:5522:55
Evening civil twilight18:1923:19

Current date and time
Zulu (UTC)  21-Jan-2020 14:20:20
Local (UTC-5)  21-Jan-2020 09:20:20
 
METAR
KFXE 
8nm E 
211353Z 34008KT 10SM CLR 13/09 A3012 RMK AO2 SLP202 T01330089
KHWO 
11nm SE 
211353Z 33013KT 10SM CLR 14/09 A3014 RMK AO2 SLP207 T01440089
KFLL 
11nm SE 
211353Z 33009KT 10SM FEW020 FEW250 14/10 A3011 RMK AO2 SLP196 T01390100
KPMP 
12nm NE 
211353Z 33012G19KT 10SM CLR 14/09 A3012 RMK AO2 SLP199 T01440089
KOPF 
15nm S 
211353Z 34011KT 10SM CLR 14/10 A3013 RMK AO2 SLP205 T01440100
KBCT 
18nm NE 
211347Z 34012G18KT 320V070 10SM CLR 14/09 A3012
TAF
KFXE 
8nm E 
211131Z 2112/2212 32010KT P6SM SCT250 FM211400 32012G20KT P6SM FEW050 SCT250 FM220200 35014KT P6SM FEW050 SCT250
KFLL 
11nm SE 
211131Z 2112/2218 34010KT P6SM SCT250 FM211400 33012G20KT P6SM FEW050 SCT250 FM220200 35014KT P6SM FEW050 SCT250
KOPF 
15nm S 
211131Z 2112/2212 33010KT P6SM SCT250 FM211400 33012G20KT P6SM FEW050 SCT250 FM220200 35014KT P6SM FEW050 SCT250
NOTAMs
Click for the latest NOTAMs
NOTAMs are issued by the DoD/FAA and will open in a separate window not controlled by AirNav.

 

 
 

Would you like to see your business listed on this page?

 If your business provides an interesting product or service to pilots, flight crews, aircraft, or users of the Broward County Civic Arena Heliport, you should consider listing it here.  To start the listing process, click on the button below
 
Add a business
 

Other Pages about Broward County Civic Arena Heliport

Update a link
 
Copyright © AirNav, LLC. All rights reserved. Privacy Policy  Contact